الصفحة الرئيسية
METAR-TAF:

METAR-TAF

مطار :

Thule, جرينلاند

قاعدة ثول الجوية

دائرة عرض: 76-32N, خط طول: 068-42W, ارتفاع: 77 متر

مراقبة الطقس الحالي

تاريخ ووقت الإصدار 21 دقيقة قبل الساعة 10:56UTC
ريح 6 عقدة من الشرق
درجة الحرارة -21°درجة مئوية
الرطوبة 64%
ضغط 1003 hPa
الرؤية 10 كم أو أكثر
سماء صافية

METAR: BGTL 161056Z AUTO 09006KT 9999 CLR M21/M26 A2962 RMK AO2 SLP023 T12071260 TSNO $

زمن: 07:17 (11:17 UTC)

توقعات

تاريخ ووقت الإصدار 1ساعة و 17 دقيقة قبل الساعة 10:00UTC
التوقعات صالحة من16 الساعة 10 UTC إلى 17 الساعة 16 UTC
ريح 9 عقدة من الشرق
الرؤية 10 كم أو أكثر
غيوم قليلة على ارتفاع 17000 قدم
أصبح
من 17 الساعة 15 UTC إلى 17 الساعة 16 UTC
ريح 10 عقدة من الشرق تتزايد حتى 15 عقدة
الرؤية 10 كم أو أكثر
سماء صافية

TAF: BGTL 161000Z 1610/1716 10009KT 9999 FEW170 QNH2955INS BECMG 1715/1716 10010G15KT 9999 SKC QNH2960INS TXM14/1615Z TNM25/1621Z

أرصاد الطقس والتوقعات من أكثر من 4000 مطار (تقارير الطقس للمطار METAR والتنبؤ بالطقس بالمطارTAF).

المحطات المتاحة هي النقط الصفراء والحمراء على الخريطة.

حرك المؤشر فوق النقطة لمعرفة اسم المحطة.

ثم انقر لمعرفة أرصاد وتوقعات الطقس.

لتغيير الخارطة: اضغط على الأزرار الخضراء مع رمز الصليب الأسود للتكبير. على الزر الأخضر مع شرطة للتصغير، أو على الأسهم الخضراء للخرائط المجاورة.


METAR-TAF: